Rawlins Municipal Harvey Field
KRWL : now visible

Airfield :











YOU CAN JOIN US ON...

 
LOGIN :

Register | Disclaimer

   EN    FR    IT 

 









Legend :    VFR   Marginal VFR   IFR   Intensive IFR   Very Intensive IFR
Visi :
Ceiling :
>= 8 km
>= 3000ft
5 to 8 km
1000 to 3000 ft
1500m to 5 km
500 to 1000 ft
800 to 1500m
200 to 500 ft
< 800m
< 200 ft
Symbols :   Thunderstorms  Fog  Heavy snow  Heavy precipitations  Wind > 20 kt






- Airport Elevation : 6813 ft


KRWL - Rawlins Municipal Harvey Field

CURRENT METAR :
  • 221053Z AUTO 24008KT 10SM CLR 15/M04 A3006 RMK AO2 SLP078 T01501039

EXPIRED METARs :
  • 220953Z AUTO 25005KT 10SM CLR 16/M05 A3007 RMK AO2 SLP082 T01561050
  • 220853Z AUTO 00000KT 10SM CLR 14/M06 A3007 RMK AO2 SLP086 T01441056 56006

TAF KRWL
Valid from the 22 at 06:00 until the 23 at 06:00 UTC


220523Z 2206/2306 24009KT P6SM SKC
FM221500 27018G29KT P6SM SKC
FM230100 29010KT P6SM SKC
KZDV FIR / North America



MET'MAP, your aeronautical weather chart ! - Copyright ORBIFLY December 2007 - Disclaimer

ORBIFLY MET'MAP TEAM :

Programming & Development : Alexandra Zaïnal
Concept & original design : Baudouin d'Aumeries
Assistance for programming : Marc-Olivier Méhu
Technical & hardware support : Manuel Goepfert

Contact : metmap@orbifly.com




SOURCES & CREDITS :

   NOAA       Earth
Advisory